createdAt,value
2023-01-19T00:00:07.550Z,19.915198
2023-01-19T00:05:09.174Z,20.50405
2023-01-19T00:10:10.760Z,19.941306
2023-01-19T00:15:12.268Z,20.260476
2023-01-19T00:20:14.121Z,19.893446
2023-01-19T00:25:16.161Z,20.04244
2023-01-19T00:30:17.957Z,19.351002
2023-01-19T00:35:19.677Z,20.24213
2023-01-19T00:40:21.574Z,19.561982
2023-01-19T00:45:23.280Z,19.202008
2023-01-19T00:50:24.820Z,19.17666
2023-01-19T00:55:26.798Z,19.389404
2023-01-19T01:00:28.943Z,19.149928
2023-01-19T01:05:30.704Z,19.929446
2023-01-19T01:10:32.268Z,19.912674
2023-01-19T01:15:34.023Z,19.296534
2023-01-19T01:20:36.386Z,19.17666
2023-01-19T01:25:38.663Z,19.476602
2023-01-19T01:30:40.461Z,18.9377
2023-01-19T01:35:42.231Z,19.548182
2023-01-19T01:40:44.014Z,19.171626
2023-01-19T01:45:45.829Z,19.084048
2023-01-19T01:50:47.483Z,19.087318
2023-01-19T01:55:49.134Z,18.803524
2023-01-19T02:00:50.847Z,19.076734
2023-01-19T02:05:52.398Z,18.581078
2023-01-19T02:10:54.179Z,18.904604
2023-01-19T02:15:55.878Z,18.950496
2023-01-19T02:20:57.495Z,19.058456
2023-01-19T02:25:59.993Z,18.92314
2023-01-19T02:31:01.620Z,18.942816
2023-01-19T02:36:03.453Z,18.495902
2023-01-19T02:41:05.000Z,18.384496
2023-01-19T02:46:06.810Z,18.530396
2023-01-19T02:51:08.361Z,18.487774
2023-01-19T02:56:10.648Z,18.917658
2023-01-19T03:01:12.263Z,18.96047
2023-01-19T03:06:13.891Z,18.443632
2023-01-19T03:11:15.669Z,18.249248
2023-01-19T03:16:17.489Z,18.31236
2023-01-19T03:21:19.364Z,18.499064
2023-01-19T03:26:21.338Z,18.090796
2023-01-19T03:31:23.089Z,18.187018
2023-01-19T03:36:24.898Z,17.999446
2023-01-19T03:41:26.644Z,17.517034
2023-01-19T03:46:28.451Z,17.320194
2023-01-19T03:51:30.239Z,17.996352
2023-01-19T03:56:32.282Z,18.169364
2023-01-19T04:01:34.186Z,18.456686
2023-01-19T04:06:36.027Z,18.224972
2023-01-19T04:11:37.585Z,18.456428
2023-01-19T04:16:39.374Z,19.148748
2023-01-19T04:21:41.143Z,19.050762
2023-01-19T04:26:43.601Z,19.150444
2023-01-19T04:31:45.413Z,19.018914
2023-01-19T04:36:47.045Z,19.311976
2023-01-19T04:41:48.945Z,19.606626
2023-01-19T04:46:50.742Z,19.444836
2023-01-19T04:51:52.618Z,20.025926
2023-01-19T04:56:55.352Z,20.087016
2023-01-19T05:01:56.989Z,20.449826
2023-01-19T05:06:58.486Z,21.16459
2023-01-19T05:12:00.217Z,21.164156
2023-01-19T05:17:01.821Z,21.807178
2023-01-19T05:22:03.757Z,21.846842
2023-01-19T05:27:06.251Z,22.712636
2023-01-19T05:32:07.822Z,23.244442
2023-01-19T05:37:09.489Z,22.824246
2023-01-19T05:42:11.178Z,24.268906
2023-01-19T05:47:13.037Z,24.761252
2023-01-19T05:52:14.925Z,25.157416
2023-01-19T05:57:16.791Z,25.841094
2023-01-19T06:02:18.613Z,25.7151
2023-01-19T06:07:20.323Z,26.016332
2023-01-19T06:12:22.187Z,25.131974
2023-01-19T06:17:23.841Z,26.058466
2023-01-19T06:22:25.502Z,26.509764
2023-01-19T06:27:27.459Z,25.841094
2023-01-19T06:32:29.250Z,24.333836
2023-01-19T06:37:31.024Z,25.639816
2023-01-19T06:42:32.834Z,26.681474
2023-01-19T06:47:34.578Z,26.602228
2023-01-19T06:52:36.364Z,25.984946
2023-01-19T06:57:39.072Z,25.911032
2023-01-19T07:02:40.929Z,25.808866
2023-01-19T07:07:42.721Z,27.835068
2023-01-19T07:12:44.589Z,27.596052
2023-01-19T07:17:46.149Z,28.058858
2023-01-19T07:22:48.020Z,28.283504
2023-01-19T07:27:50.464Z,26.996438
2023-01-19T07:32:52.183Z,27.989558
2023-01-19T07:37:54.049Z,30.080258
2023-01-19T07:42:55.836Z,30.166764
2023-01-19T07:47:57.413Z,29.298946
2023-01-19T07:52:59.687Z,29.632216
2023-01-19T07:58:01.690Z,30.424752
2023-01-19T08:03:03.673Z,31.289938
2023-01-19T08:08:05.576Z,30.571968
2023-01-19T08:13:07.455Z,31.427426
2023-01-19T08:18:09.044Z,31.792732
2023-01-19T08:23:10.642Z,32.55395
2023-01-19T08:28:13.247Z,32.000608
2023-01-19T08:33:14.717Z,32.404074
2023-01-19T08:38:16.355Z,32.723232
2023-01-19T08:43:18.117Z,33.236382
2023-01-19T08:48:19.839Z,33.998304
2023-01-19T08:53:21.369Z,32.308938
2023-01-19T08:58:23.062Z,29.806368
2023-01-19T09:03:24.598Z,29.887148
2023-01-19T09:08:26.271Z,29.835694
2023-01-19T09:13:27.782Z,30.246662
2023-01-19T09:18:29.286Z,29.386348
2023-01-19T09:23:30.769Z,28.652286
2023-01-19T09:28:32.824Z,28.93258
2023-01-19T09:33:34.486Z,29.75228
2023-01-19T09:38:35.929Z,28.914044
2023-01-19T09:43:37.614Z,31.301622
2023-01-19T09:48:39.232Z,31.78762
2023-01-19T09:53:41.084Z,30.68674
2023-01-19T09:58:43.259Z,32.454186
2023-01-19T10:03:44.808Z,31.71745
2023-01-19T10:08:46.602Z,31.713908
2023-01-19T10:13:48.233Z,33.19798
2023-01-19T10:18:50.031Z,31.780562
2023-01-19T10:23:51.751Z,30.601102
2023-01-19T10:28:53.841Z,30.12261
2023-01-19T10:33:56.631Z,29.938104
2023-01-19T10:38:58.134Z,30.694244
2023-01-19T10:43:59.845Z,28.70879
2023-01-19T10:49:01.471Z,29.338244
2023-01-19T10:54:03.197Z,29.46755
2023-01-19T10:59:05.247Z,28.929486
2023-01-19T11:04:06.969Z,31.36917
2023-01-19T11:09:08.581Z,31.88562
2023-01-19T11:14:10.227Z,32.956522
2023-01-19T11:19:11.927Z,31.648596
2023-01-19T11:24:13.400Z,31.886514
2023-01-19T11:29:15.791Z,32.23281
2023-01-19T11:34:17.455Z,31.59341
2023-01-19T11:39:18.959Z,33.87668
2023-01-19T11:44:20.583Z,33.935178
2023-01-19T11:49:22.184Z,34.514332
2023-01-19T11:54:23.809Z,33.155384
2023-01-19T11:59:25.882Z,33.242786
2023-01-19T12:04:27.502Z,30.184432
2023-01-19T12:09:29.291Z,29.577464
2023-01-19T12:14:31.212Z,29.036102
2023-01-19T12:19:33.054Z,27.567774
2023-01-19T12:24:34.958Z,27.056864
2023-01-19T12:29:37.359Z,26.693158
2023-01-19T12:34:39.121Z,27.016264
2023-01-19T12:39:40.918Z,27.20674
2023-01-19T12:44:42.728Z,24.536336
2023-01-19T12:49:44.486Z,23.615706
2023-01-19T12:54:46.282Z,21.788058
2023-01-19T12:59:48.337Z,20.449826
2023-01-19T13:04:50.102Z,18.31464
2023-01-19T13:09:51.898Z,18.3376
2023-01-19T13:14:53.793Z,17.476408
2023-01-19T13:19:55.414Z,18.6738
2023-01-19T13:24:57.026Z,19.740246
2023-01-19T13:30:00.242Z,18.975288
2023-01-19T13:35:02.483Z,19.342752
2023-01-19T13:40:04.468Z,19.478
2023-01-19T13:45:06.068Z,19.413382
2023-01-19T13:50:07.651Z,20.150318
2023-01-19T13:55:10.009Z,20.3867
2023-01-19T14:00:12.556Z,20.91415
2023-01-19T14:05:14.417Z,21.29498
2023-01-19T14:10:15.944Z,21.775832
2023-01-19T14:15:17.452Z,21.62772
2023-01-19T14:20:18.896Z,22.238596
2023-01-19T14:25:21.206Z,22.638044
2023-01-19T14:30:23.267Z,23.268134
2023-01-19T14:35:25.020Z,23.610848
2023-01-19T14:40:33.997Z,23.756898
2023-01-19T14:45:36.088Z,23.107172
2023-01-19T14:50:37.888Z,24.395782
2023-01-19T14:55:39.896Z,24.160512
2023-01-19T15:00:42.364Z,24.20004
2023-01-19T15:05:44.311Z,23.547234
2023-01-19T15:10:46.084Z,23.586518
2023-01-19T15:15:47.977Z,23.260142
2023-01-19T15:20:49.793Z,23.003948
2023-01-19T15:25:51.652Z,23.463428
2023-01-19T15:30:53.981Z,22.645846
2023-01-19T15:35:55.900Z,22.608272
2023-01-19T15:40:57.801Z,23.02072
2023-01-19T15:45:59.391Z,22.627202
2023-01-19T15:51:00.943Z,23.208306
2023-01-19T15:56:02.508Z,22.633376
2023-01-19T16:01:04.402Z,22.558336
2023-01-19T16:06:05.974Z,23.101052
2023-01-19T16:11:07.548Z,21.99627
2023-01-19T16:16:09.173Z,22.739558
2023-01-19T16:21:10.657Z,22.715662
2023-01-19T16:26:12.062Z,22.614012
2023-01-19T16:31:13.998Z,22.889624
2023-01-19T16:36:15.733Z,22.617296
2023-01-19T16:41:17.166Z,22.55261
2023-01-19T16:46:18.668Z,22.317598
2023-01-19T16:51:20.160Z,22.51357
2023-01-19T16:56:21.682Z,22.076792
2023-01-19T17:01:23.810Z,21.780636
2023-01-19T17:06:25.386Z,21.578232
2023-01-19T17:11:26.892Z,21.770282
2023-01-19T17:16:28.481Z,22.271936
2023-01-19T17:21:30.009Z,21.563536
2023-01-19T17:26:31.516Z,21.014904
2023-01-19T17:31:33.720Z,21.305524
2023-01-19T17:36:35.222Z,20.895926
2023-01-19T17:41:36.682Z,21.122104
2023-01-19T17:46:38.180Z,20.833004
2023-01-19T17:51:39.882Z,21.16227
2023-01-19T17:56:41.652Z,21.498402
2023-01-19T18:01:43.387Z,21.189884
2023-01-19T18:06:45.050Z,21.241964
2023-01-19T18:11:46.766Z,20.495596
2023-01-19T18:16:48.380Z,20.538028
2023-01-19T18:21:50.188Z,20.525232
2023-01-19T18:26:53.681Z,19.596774
2023-01-19T18:31:56.751Z,19.83625
2023-01-19T18:36:58.281Z,20.16287
2023-01-19T18:41:59.817Z,20.060026
2023-01-19T18:47:01.290Z,20.590108
2023-01-19T18:52:02.993Z,19.98519
2023-01-19T18:57:04.479Z,20.544026
2023-01-19T19:02:06.288Z,20.630274
2023-01-19T19:07:07.810Z,19.94174
2023-01-19T19:12:09.277Z,19.667214
2023-01-19T19:17:10.743Z,19.653522
2023-01-19T19:22:12.186Z,19.61432
2023-01-19T19:27:13.762Z,19.889212
2023-01-19T19:32:15.567Z,19.800508
2023-01-19T19:37:17.066Z,20.086948
2023-01-19T19:42:18.784Z,19.524204
2023-01-19T19:47:20.539Z,20.690998
2023-01-19T19:52:22.573Z,19.910408
2023-01-19T19:57:24.371Z,19.446776
2023-01-19T20:02:26.636Z,19.803154
2023-01-19T20:07:28.465Z,19.589528
2023-01-19T20:12:30.415Z,19.436884
2023-01-19T20:17:32.279Z,20.29269
2023-01-19T20:22:34.124Z,20.454616
2023-01-19T20:27:35.916Z,19.702522
2023-01-19T20:32:37.972Z,20.574924
2023-01-19T20:37:39.449Z,19.593314
2023-01-19T20:42:40.952Z,19.749378
2023-01-19T20:47:42.461Z,19.766584
2023-01-19T20:52:43.901Z,19.650686
2023-01-19T20:57:45.819Z,19.403082
2023-01-19T21:02:47.560Z,19.173756
2023-01-19T21:07:49.391Z,20.273204
2023-01-19T21:12:51.181Z,19.948986
2023-01-19T21:17:52.997Z,20.415766
2023-01-19T21:22:55.134Z,19.761726
2023-01-19T21:27:56.824Z,20.537146
2023-01-19T21:32:58.923Z,19.920626
2023-01-19T21:38:00.798Z,19.357814
2023-01-19T21:43:02.350Z,19.298922
2023-01-19T21:48:04.119Z,19.581142
2023-01-19T21:53:05.809Z,19.308882
2023-01-19T21:58:07.349Z,19.924086
2023-01-19T22:03:09.109Z,19.616708
2023-01-19T22:08:10.657Z,18.974338
2023-01-19T22:13:12.354Z,18.444324
2023-01-19T22:18:13.794Z,18.634122
2023-01-19T22:23:15.398Z,18.833432
2023-01-19T22:28:16.865Z,18.41325
2023-01-19T22:33:18.736Z,18.32403
2023-01-19T22:38:20.333Z,19.025794
2023-01-19T22:43:22.096Z,18.923642
2023-01-19T22:48:23.940Z,19.043882
2023-01-19T22:53:25.699Z,19.491678
2023-01-19T22:58:27.695Z,19.32944
2023-01-19T23:03:29.914Z,18.775286
2023-01-19T23:08:31.966Z,18.935054
2023-01-19T23:13:33.543Z,18.324274
2023-01-19T23:18:35.493Z,16.921018
2023-01-19T23:23:37.288Z,16.373216
2023-01-19T23:28:39.193Z,16.666088
2023-01-19T23:33:41.625Z,16.895942
2023-01-19T23:38:43.586Z,17.332882
2023-01-19T23:43:45.141Z,17.075834
2023-01-19T23:48:47.196Z,17.483206
2023-01-19T23:53:49.000Z,17.796052
2023-01-19T23:58:50.686Z,17.406592
